Time;durP1;ratioP1;P1;durP2;ratioP2;P2;SDS_P1;SDS_P2;PMS_P1;PMS_P2;Temp;Humidity;BMP_temperature;BMP_pressure;BME280_temperature;BME280_humidity;BME280_pressure;Samples;Min_cycle;Max_cycle;Signal;HPM_P1;HPM_P2
2024/02/19 00:01:20;;;;;;;10.80;7.87;;;;;;;1.46;100.00;98479.16;6306093;28;20266;-55
2024/02/19 00:04:23;;;;;;;8.90;7.10;;;;;;;1.40;100.00;98481.66;6306100;28;20353;-52
2024/02/19 00:07:25;;;;;;;9.33;6.37;;;;;;;1.24;100.00;98472.78;6306506;28;20192;-56
2024/02/19 00:10:27;;;;;;;8.50;7.10;;;;;;;1.24;100.00;98478.03;6309910;28;20204;-54
2024/02/19 00:13:29;;;;;;;9.90;7.57;;;;;;;1.20;100.00;98475.88;6304483;28;20231;-56
2024/02/19 00:16:32;;;;;;;9.63;6.97;;;;;;;1.12;100.00;98468.81;6310922;28;20679;-55
2024/02/19 00:19:34;;;;;;;11.03;7.80;;;;;;;1.08;100.00;98471.91;6312448;28;20569;-52
2024/02/19 00:22:36;;;;;;;9.60;7.40;;;;;;;1.02;100.00;98468.97;6299864;28;20754;-53
2024/02/19 00:25:38;;;;;;;9.13;7.13;;;;;;;1.01;100.00;98471.75;6305810;28;20767;-54
2024/02/19 00:28:41;;;;;;;7.97;6.97;;;;;;;1.07;100.00;98473.72;6313861;28;20205;-55
2024/02/19 00:31:44;;;;;;;8.33;6.50;;;;;;;1.10;100.00;98473.41;6308238;28;20204;-55
2024/02/19 00:34:46;;;;;;;8.00;6.13;;;;;;;1.07;100.00;98465.84;6306504;28;20215;-54
2024/02/19 00:37:49;;;;;;;8.23;6.93;;;;;;;0.97;100.00;98467.81;6307392;28;20191;-55
2024/02/19 00:40:51;;;;;;;8.00;6.83;;;;;;;1.18;100.00;98464.72;6309617;28;20233;-53
2024/02/19 00:43:53;;;;;;;9.47;7.47;;;;;;;1.16;100.00;98459.63;6308379;28;20190;-56
2024/02/19 00:46:56;;;;;;;8.40;6.33;;;;;;;1.07;100.00;98444.03;6303764;28;20221;-56
2024/02/19 00:49:58;;;;;;;8.17;6.87;;;;;;;1.14;100.00;98448.50;6306613;28;20198;-55
2024/02/19 00:53:00;;;;;;;11.70;8.47;;;;;;;1.10;100.00;98439.31;6304452;28;20198;-55
2024/02/19 00:56:02;;;;;;;11.80;8.20;;;;;;;1.05;100.00;98441.59;6315635;28;20222;-55
2024/02/19 00:59:04;;;;;;;11.00;7.97;;;;;;;1.10;100.00;98435.88;6309328;28;20206;-54
2024/02/19 01:02:07;;;;;;;7.77;6.50;;;;;;;1.07;100.00;98433.56;6300304;28;20672;-54
2024/02/19 01:05:10;;;;;;;9.93;7.17;;;;;;;1.09;100.00;98445.53;6303657;28;20201;-55
2024/02/19 01:08:12;;;;;;;8.17;6.40;;;;;;;1.17;100.00;98450.78;6306403;28;20743;-56
2024/02/19 01:11:14;;;;;;;9.33;6.50;;;;;;;1.00;100.00;98418.47;6304121;28;20271;-57
2024/02/19 01:14:16;;;;;;;8.33;7.03;;;;;;;1.35;100.00;98428.81;6304045;28;20199;-55
2024/02/19 01:17:18;;;;;;;8.23;6.53;;;;;;;1.28;100.00;98434.72;6306407;28;20210;-56
2024/02/19 01:20:20;;;;;;;7.07;5.40;;;;;;;1.14;100.00;98422.25;6312925;28;20675;-55
2024/02/19 01:23:23;;;;;;;9.17;6.57;;;;;;;1.25;100.00;98421.91;6299669;28;20200;-56
2024/02/19 01:26:25;;;;;;;8.67;5.93;;;;;;;1.26;100.00;98422.75;6297667;28;20190;-54
2024/02/19 01:29:27;;;;;;;5.50;4.97;;;;;;;1.20;100.00;98418.97;6301192;28;20375;-54
2024/02/19 01:32:29;;;;;;;5.90;4.70;;;;;;;1.16;100.00;98411.59;6300893;28;20409;-56
2024/02/19 01:35:32;;;;;;;5.30;4.73;;;;;;;1.03;100.00;98406.81;6306230;28;20267;-57
2024/02/19 01:38:36;;;;;;;6.67;4.80;;;;;;;1.02;100.00;98413.06;6305717;28;20680;-54
2024/02/19 01:41:38;;;;;;;5.20;4.70;;;;;;;1.14;100.00;98409.13;6308746;28;20991;-55
2024/02/19 01:44:40;;;;;;;6.07;4.97;;;;;;;1.11;100.00;98385.03;6305143;28;20187;-55
2024/02/19 01:47:42;;;;;;;6.00;5.40;;;;;;;1.16;100.00;98404.53;6303315;28;20202;-56
2024/02/19 01:50:47;;;;;;;6.20;5.57;;;;;;;1.14;100.00;98382.06;6315194;28;20839;-55
2024/02/19 01:53:52;;;;;;;8.50;6.40;;;;;;;1.22;100.00;98387.31;6312280;28;20203;-54
2024/02/19 01:56:54;;;;;;;9.17;6.27;;;;;;;1.06;100.00;98387.31;6307302;28;20254;-55
2024/02/19 01:59:57;;;;;;;8.53;6.43;;;;;;;1.10;100.00;98389.44;6310555;28;20194;-54
2024/02/19 02:03:00;;;;;;;9.27;7.03;;;;;;;1.14;100.00;98390.75;6307458;28;20308;-55
2024/02/19 02:06:02;;;;;;;7.83;6.53;;;;;;;1.08;100.00;98395.84;6303842;28;20191;-56
2024/02/19 02:09:07;;;;;;;8.33;6.50;;;;;;;1.27;100.00;98387.63;6306288;28;20301;-55
2024/02/19 02:12:09;;;;;;;8.80;6.73;;;;;;;1.43;100.00;98398.13;6307779;28;20222;-56
2024/02/19 02:15:11;;;;;;;11.97;4.53;;;;;;;1.40;100.00;98371.38;6297128;28;20211;-56
2024/02/19 02:18:15;;;;;;;4.67;3.73;;;;;;;1.38;100.00;98378.59;6314832;28;20218;-56
2024/02/19 02:21:17;;;;;;;5.70;3.93;;;;;;;1.40;100.00;98381.88;6292680;28;20486;-54
2024/02/19 02:24:20;;;;;;;7.10;3.70;;;;;;;1.32;100.00;98381.88;6307039;28;20203;-54
2024/02/19 02:27:22;;;;;;;4.77;3.83;;;;;;;1.34;100.00;98382.56;6310975;28;20328;-56
2024/02/19 02:30:24;;;;;;;7.10;4.40;;;;;;;1.22;100.00;98351.38;6304485;28;20192;-56
2024/02/19 02:33:26;;;;;;;5.40;3.53;;;;;;;1.67;100.00;98368.38;6304887;28;20190;-55
2024/02/19 02:36:29;;;;;;;5.77;4.60;;;;;;;1.73;100.00;98372.16;6305747;28;20214;-55
2024/02/19 02:39:31;;;;;;;4.90;4.40;;;;;;;1.94;100.00;98371.59;6301575;28;20198;-57
2024/02/19 02:42:33;;;;;;;8.80;6.77;;;;;;;1.80;100.00;98349.47;6304016;28;20314;-55
2024/02/19 02:45:36;;;;;;;8.00;6.33;;;;;;;2.15;100.00;98368.38;6308298;28;20345;-55
2024/02/19 02:48:38;;;;;;;9.60;7.17;;;;;;;2.30;100.00;98369.28;6315378;28;20289;-55
2024/02/19 02:51:41;;;;;;;7.80;6.40;;;;;;;2.27;100.00;98359.94;6304751;28;20192;-56
2024/02/19 02:54:43;;;;;;;9.70;7.27;;;;;;;2.44;100.00;98363.31;6306471;28;20668;-55
2024/02/19 02:57:45;;;;;;;10.20;7.07;;;;;;;2.73;100.00;98353.91;6311650;28;20295;-55
2024/02/19 03:00:48;;;;;;;10.37;7.40;;;;;;;2.96;100.00;98353.94;6311359;28;20683;-56
2024/02/19 03:03:50;;;;;;;14.97;10.00;;;;;;;3.00;100.00;98331.50;6309189;28;20224;-53
2024/02/19 03:06:52;;;;;;;14.80;9.77;;;;;;;3.24;100.00;98346.25;6308100;28;20201;-55
2024/02/19 03:09:56;;;;;;;11.40;8.00;;;;;;;3.27;100.00;98353.81;6311211;28;20205;-56
2024/02/19 03:12:58;;;;;;;15.40;10.83;;;;;;;3.68;100.00;98351.59;6312355;28;20201;-56
2024/02/19 03:16:01;;;;;;;22.33;14.27;;;;;;;3.90;100.00;98341.97;6312268;28;20714;-54
2024/02/19 03:19:05;;;;;;;22.80;13.57;;;;;;;4.44;100.00;98335.53;6313497;28;20197;-54
2024/02/19 03:22:07;;;;;;;19.30;12.90;;;;;;;4.44;100.00;98309.16;6317405;28;20194;-56
2024/02/19 03:25:10;;;;;;;15.50;10.53;;;;;;;4.59;100.00;98329.19;6307510;28;20220;-56
2024/02/19 03:28:12;;;;;;;16.77;10.90;;;;;;;4.60;100.00;98327.38;6309553;28;20194;-56
2024/02/19 03:31:14;;;;;;;18.27;10.37;;;;;;;4.57;100.00;98327.72;6307203;28;20220;-58
2024/02/19 03:34:16;;;;;;;13.30;9.57;;;;;;;4.70;100.00;98327.06;6303747;28;20651;-56
2024/02/19 03:37:19;;;;;;;15.00;10.03;;;;;;;4.81;100.00;98330.00;6307331;28;21710;-57
2024/02/19 03:40:21;;;;;;;12.00;8.73;;;;;;;4.84;100.00;98327.00;6305420;28;20680;-57
2024/02/19 03:43:25;;;;;;;11.23;8.80;;;;;;;5.00;100.00;98318.00;6315521;28;20201;-58
2024/02/19 03:46:27;;;;;;;11.57;7.90;;;;;;;5.06;100.00;98324.34;6316057;28;20572;-58
2024/02/19 03:49:29;;;;;;;9.90;8.27;;;;;;;5.07;100.00;98321.50;6306716;28;20681;-56
2024/02/19 03:52:32;;;;;;;11.90;9.17;;;;;;;5.26;100.00;98319.22;6310636;28;20201;-58
2024/02/19 03:55:34;;;;;;;12.07;8.60;;;;;;;5.48;100.00;98322.63;6303772;28;20623;-55
2024/02/19 03:58:36;;;;;;;11.10;8.53;;;;;;;5.59;100.00;98328.19;6304899;28;20273;-58
2024/02/19 04:01:38;;;;;;;8.50;7.40;;;;;;;5.73;100.00;98331.72;6310861;28;20199;-57
2024/02/19 04:04:40;;;;;;;8.73;7.60;;;;;;;5.94;100.00;98336.94;6307658;28;20731;-57
2024/02/19 04:07:43;;;;;;;7.17;6.20;;;;;;;5.97;100.00;98327.00;6309814;28;20644;-56
2024/02/19 04:10:45;;;;;;;8.30;6.97;;;;;;;6.27;100.00;98336.28;6313337;28;20717;-55
2024/02/19 04:13:47;;;;;;;7.93;6.83;;;;;;;6.45;100.00;98333.91;6301675;28;20203;-56
2024/02/19 04:16:49;;;;;;;9.80;6.53;;;;;;;6.66;100.00;98324.19;6313617;28;20650;-57
2024/02/19 04:19:56;;;;;;;8.13;5.83;;;;;;;6.87;100.00;98318.72;6306948;28;20186;-55
2024/02/19 04:22:58;;;;;;;6.40;5.47;;;;;;;7.03;100.00;98325.44;6315219;28;20197;-57
2024/02/19 04:26:00;;;;;;;6.90;5.20;;;;;;;7.14;100.00;98332.81;6310901;28;20237;-57
2024/02/19 04:29:02;;;;;;;6.80;5.80;;;;;;;7.16;100.00;98317.50;6306646;28;20243;-55
2024/02/19 04:32:05;;;;;;;6.40;5.27;;;;;;;7.09;100.00;98281.44;6305029;28;20292;-56
2024/02/19 04:35:07;;;;;;;5.80;4.90;;;;;;;7.37;100.00;98329.72;6304800;28;20229;-57
2024/02/19 04:38:09;;;;;;;7.00;4.77;;;;;;;7.37;100.00;98339.53;6307952;28;20224;-58
2024/02/19 04:41:12;;;;;;;4.10;3.70;;;;;;;7.24;100.00;98330.56;6291041;28;20226;-56
2024/02/19 04:44:14;;;;;;;3.90;3.20;;;;;;;7.47;100.00;98327.47;6315040;28;20664;-56
2024/02/19 04:47:16;;;;;;;3.20;2.90;;;;;;;7.42;100.00;98334.41;6310430;28;20747;-55
2024/02/19 04:50:18;;;;;;;2.30;2.10;;;;;;;7.16;100.00;98306.91;6295748;28;20854;-56
2024/02/19 04:53:21;;;;;;;2.03;1.70;;;;;;;7.36;100.00;98343.19;6301398;28;20223;-58
2024/02/19 04:56:23;;;;;;;2.27;1.97;;;;;;;7.28;100.00;98328.31;6301054;28;20578;-57
2024/02/19 04:59:25;;;;;;;2.63;1.43;;;;;;;7.37;100.00;98307.72;6305634;28;20208;-56
2024/02/19 05:02:27;;;;;;;1.73;1.37;;;;;;;7.35;100.00;98329.13;6306872;28;20625;-55
2024/02/19 05:05:29;;;;;;;2.47;1.13;;;;;;;7.34;100.00;98324.00;6306046;28;20207;-56
2024/02/19 05:08:31;;;;;;;1.17;1.00;;;;;;;7.28;100.00;98325.66;6300884;28;20202;-57
2024/02/19 05:11:33;;;;;;;1.37;0.90;;;;;;;7.33;100.00;98325.84;6305609;28;20192;-56
2024/02/19 05:14:35;;;;;;;1.00;0.80;;;;;;;7.19;100.00;98314.47;6314308;28;20238;-57
2024/02/19 05:17:38;;;;;;;0.90;0.70;;;;;;;7.26;100.00;98316.28;6308493;28;20568;-55
2024/02/19 05:20:40;;;;;;;0.80;0.70;;;;;;;7.21;100.00;98336.25;6314307;28;20197;-57
2024/02/19 05:23:42;;;;;;;0.60;0.60;;;;;;;7.18;100.00;98314.66;6300392;28;20193;-56
2024/02/19 05:26:44;;;;;;;0.97;0.70;;;;;;;7.14;100.00;98306.31;6306288;28;20180;-55
2024/02/19 05:29:46;;;;;;;0.40;0.40;;;;;;;7.09;100.00;98313.22;6307133;28;20271;-55
2024/02/19 05:32:49;;;;;;;0.53;0.30;;;;;;;6.64;100.00;98241.50;6303222;28;20748;-56
2024/02/19 05:35:51;;;;;;;0.60;0.30;;;;;;;7.11;100.00;98304.06;6306759;28;20210;-54
2024/02/19 05:38:53;;;;;;;0.67;0.30;;;;;;;7.00;100.00;98319.75;6309030;28;20207;-56
2024/02/19 05:41:55;;;;;;;1.23;0.20;;;;;;;7.06;100.00;98321.59;6311031;28;20237;-56
2024/02/19 05:44:57;;;;;;;0.17;0.17;;;;;;;6.94;100.00;98298.34;6313814;28;20279;-55
2024/02/19 05:48:00;;;;;;;0.60;0.30;;;;;;;7.13;100.00;98319.75;6293314;28;20281;-56
2024/02/19 05:51:03;;;;;;;0.30;0.30;;;;;;;7.09;100.00;98318.50;6306772;28;20197;-57
2024/02/19 05:54:07;;;;;;;0.30;0.30;;;;;;;7.12;100.00;98326.06;6308798;28;20212;-57
2024/02/19 05:57:09;;;;;;;0.20;0.20;;;;;;;6.98;100.00;98333.19;6304548;28;20225;-53
2024/02/19 06:00:13;;;;;;;0.20;0.20;;;;;;;7.01;100.00;98334.63;6304174;28;20567;-57
2024/02/19 06:03:16;;;;;;;0.20;0.20;;;;;;;7.06;100.00;98324.25;6305956;28;20190;-56
2024/02/19 06:06:18;;;;;;;1.23;0.30;;;;;;;6.93;100.00;98331.16;6306427;28;20556;-57
2024/02/19 06:09:20;;;;;;;0.60;0.40;;;;;;;6.80;100.00;98330.31;6304015;28;20203;-56
2024/02/19 06:12:24;;;;;;;0.47;0.30;;;;;;;6.72;100.00;98331.31;6312980;28;20255;-53
2024/02/19 06:15:27;;;;;;;0.10;0.10;;;;;;;6.83;100.00;98328.06;6300545;28;20556;-55
2024/02/19 06:18:29;;;;;;;1.00;0.30;;;;;;;6.81;100.00;98337.25;6310784;28;20201;-57
2024/02/19 06:21:32;;;;;;;0.20;0.20;;;;;;;6.79;100.00;98339.28;6297629;28;20197;-56
2024/02/19 06:24:34;;;;;;;0.17;0.17;;;;;;;7.05;100.00;98336.69;6299503;28;21066;-56
2024/02/19 06:27:36;;;;;;;0.20;0.20;;;;;;;7.05;100.00;98339.31;6309216;28;20333;-54
2024/02/19 06:30:39;;;;;;;0.30;0.30;;;;;;;7.04;100.00;98342.97;6307957;28;20193;-57
2024/02/19 06:33:41;;;;;;;0.23;0.23;;;;;;;7.07;100.00;98341.75;6308886;28;20693;-58
2024/02/19 06:36:44;;;;;;;0.20;0.20;;;;;;;7.24;100.00;98343.81;6308500;28;20195;-54
2024/02/19 06:39:46;;;;;;;0.30;0.20;;;;;;;7.19;100.00;98337.47;6298909;28;20202;-57
2024/02/19 06:42:48;;;;;;;0.20;0.20;;;;;;;7.20;100.00;98324.03;6317549;28;20702;-56
2024/02/19 06:45:53;;;;;;;0.67;0.40;;;;;;;7.40;100.00;98352.38;6298144;28;20722;-56
2024/02/19 06:48:58;;;;;;;0.30;0.30;;;;;;;7.31;100.00;98319.97;6315521;28;20200;-55
2024/02/19 06:52:00;;;;;;;0.37;0.30;;;;;;;7.38;100.00;98341.16;6305123;28;20300;-56
2024/02/19 06:55:03;;;;;;;0.30;0.27;;;;;;;7.35;100.00;98331.78;6312343;28;20189;-56
2024/02/19 06:58:05;;;;;;;0.33;0.30;;;;;;;7.46;100.00;98339.09;6311059;28;20690;-55
2024/02/19 07:01:07;;;;;;;0.30;0.30;;;;;;;7.44;100.00;98337.69;6300331;28;20285;-56
2024/02/19 07:04:11;;;;;;;0.27;0.27;;;;;;;7.50;100.00;98337.69;6311700;28;20346;-54
2024/02/19 07:07:13;;;;;;;0.30;0.30;;;;;;;7.62;100.00;98337.03;6311423;28;20557;-57
2024/02/19 07:10:17;;;;;;;0.23;0.23;;;;;;;7.44;100.00;98306.69;6300301;28;20648;-55
2024/02/19 07:13:20;;;;;;;0.33;0.30;;;;;;;7.60;100.00;98326.66;6318922;28;20668;-56
2024/02/19 07:16:23;;;;;;;0.20;0.20;;;;;;;7.79;100.00;98319.69;6319436;28;20213;-58
2024/02/19 07:19:25;;;;;;;0.20;0.20;;;;;;;7.77;100.00;98321.72;6315526;28;20201;-55
2024/02/19 07:22:27;;;;;;;0.40;0.40;;;;;;;7.76;100.00;98320.91;6308404;28;20190;-57
2024/02/19 07:25:30;;;;;;;0.30;0.30;;;;;;;7.96;100.00;98328.00;6307283;28;20639;-57
2024/02/19 07:28:32;;;;;;;0.20;0.20;;;;;;;7.88;100.00;98317.59;6307307;28;20197;-56
2024/02/19 07:31:34;;;;;;;0.40;0.40;;;;;;;7.87;100.00;98330.06;6308001;28;20195;-58
2024/02/19 07:34:37;;;;;;;0.40;0.40;;;;;;;7.95;100.00;98324.53;6304192;28;20195;-54
2024/02/19 07:37:43;;;;;;;0.30;0.30;;;;;;;8.07;100.00;98326.53;6310569;28;20675;-56
2024/02/19 07:40:46;;;;;;;0.50;0.33;;;;;;;8.13;100.00;98331.00;6310041;28;20233;-56
2024/02/19 07:43:49;;;;;;;0.33;0.33;;;;;;;8.11;100.00;98333.84;6316068;28;20192;-56
2024/02/19 07:46:51;;;;;;;1.30;0.40;;;;;;;8.20;100.00;98343.22;6310727;28;20554;-56
2024/02/19 07:49:54;;;;;;;0.20;0.20;;;;;;;8.14;100.00;98327.34;6309571;28;20232;-57
2024/02/19 07:52:56;;;;;;;0.10;0.10;;;;;;;8.19;100.00;98315.06;6302361;28;20275;-57
2024/02/19 07:56:07;;;;;;;0.40;0.40;;;;;;;8.31;100.00;98333.78;6310839;28;20197;-57
2024/02/19 07:59:09;;;;;;;0.30;0.30;;;;;;;8.45;100.00;98319.44;6295371;28;20735;-56
2024/02/19 08:02:12;;;;;;;0.30;0.30;;;;;;;8.59;99.74;98332.66;6295661;28;20653;-57
2024/02/19 08:05:14;;;;;;;0.67;0.20;;;;;;;8.63;99.82;98323.25;6301851;28;20689;-57
2024/02/19 08:08:17;;;;;;;0.20;0.20;;;;;;;8.69;100.00;98325.84;6311339;28;20569;-56
2024/02/19 08:11:21;;;;;;;0.53;0.27;;;;;;;8.71;99.03;98326.44;6313934;28;20190;-57
2024/02/19 08:14:26;;;;;;;0.30;0.30;;;;;;;8.81;97.01;98319.84;6315656;28;20569;-56
2024/02/19 08:17:29;;;;;;;0.40;0.30;;;;;;;8.85;97.75;98313.91;6302279;28;20211;-55
2024/02/19 08:20:31;;;;;;;0.13;0.13;;;;;;;8.97;95.21;98329.97;6305372;28;20271;-57
2024/02/19 08:23:34;;;;;;;0.50;0.30;;;;;;;9.05;92.87;98311.91;6305485;28;20605;-57
2024/02/19 08:26:36;;;;;;;0.20;0.20;;;;;;;9.11;93.36;98328.03;6308538;28;20218;-57
2024/02/19 08:29:38;;;;;;;0.40;0.30;;;;;;;9.22;91.76;98322.03;6307100;28;20198;-57
2024/02/19 08:32:41;;;;;;;0.23;0.23;;;;;;;9.28;92.19;98327.28;6310407;28;20675;-57
2024/02/19 08:35:43;;;;;;;0.33;0.30;;;;;;;9.31;90.34;98326.03;6306955;28;20198;-57
2024/02/19 08:38:53;;;;;;;0.20;0.20;;;;;;;9.40;91.52;98331.88;6309351;28;20701;-57
2024/02/19 08:41:56;;;;;;;0.30;0.30;;;;;;;9.46;88.91;98323.84;6315137;28;20222;-56
2024/02/19 08:44:58;;;;;;;0.30;0.30;;;;;;;9.58;85.55;98326.59;6308676;28;20675;-56
2024/02/19 08:48:00;;;;;;;0.30;0.30;;;;;;;9.69;88.02;98338.38;6303316;28;20195;-57
2024/02/19 08:51:04;;;;;;;0.70;0.40;;;;;;;9.49;85.75;98304.78;6309293;28;20186;-58
2024/02/19 08:54:06;;;;;;;0.50;0.27;;;;;;;9.75;85.79;98326.84;6304066;28;20191;-57
2024/02/19 08:57:08;;;;;;;0.77;0.37;;;;;;;9.83;85.17;98329.22;6305171;28;20343;-58
2024/02/19 09:00:11;;;;;;;2.53;0.60;;;;;;;9.87;83.19;98337.59;6309031;28;20558;-57
2024/02/19 09:03:13;;;;;;;0.20;0.20;;;;;;;9.82;82.38;98338.25;6301220;28;20640;-56
2024/02/19 09:06:16;;;;;;;0.50;0.30;;;;;;;9.92;83.41;98332.41;6308985;28;20184;-58
2024/02/19 09:09:18;;;;;;;0.80;0.30;;;;;;;10.08;84.63;98329.97;6311174;28;20194;-57
2024/02/19 09:12:23;;;;;;;0.50;0.27;;;;;;;10.16;85.04;98328.03;6311778;28;20192;-58
2024/02/19 09:15:25;;;;;;;0.63;0.20;;;;;;;10.28;84.87;98331.59;6299661;28;20202;-57
2024/02/19 09:18:28;;;;;;;0.20;0.20;;;;;;;10.16;80.12;98315.53;6311492;28;20200;-55
2024/02/19 09:21:30;;;;;;;0.23;0.23;;;;;;;10.07;81.81;98300.91;6302904;28;20198;-57
2024/02/19 09:24:32;;;;;;;0.20;0.20;;;;;;;10.26;82.05;98329.19;6304738;28;20276;-58
2024/02/19 09:27:35;;;;;;;0.20;0.20;;;;;;;10.43;81.17;98323.22;6304858;28;20568;-57
2024/02/19 09:30:38;;;;;;;0.20;0.20;;;;;;;10.33;81.14;98326.41;6307304;28;20547;-56
2024/02/19 09:33:40;;;;;;;0.50;0.20;;;;;;;10.47;83.34;98327.88;6301296;28;20196;-56
2024/02/19 09:36:45;;;;;;;0.10;0.10;;;;;;;10.49;80.56;98336.47;6308931;28;20211;-57
2024/02/19 09:39:50;;;;;;;0.20;0.20;;;;;;;10.47;80.54;98330.53;6315132;28;20205;-56
2024/02/19 09:42:52;;;;;;;0.30;0.20;;;;;;;10.29;80.04;98328.72;6299280;28;20241;-57
2024/02/19 09:45:55;;;;;;;0.20;0.20;;;;;;;10.29;81.03;98339.34;6313288;28;20248;-58
2024/02/19 09:49:00;;;;;;;1.47;0.20;;;;;;;10.42;82.50;98330.41;6311616;28;20586;-58
2024/02/19 09:52:03;;;;;;;0.20;0.20;;;;;;;10.49;84.39;98323.16;6300310;28;20228;-58
2024/02/19 09:55:08;;;;;;;0.43;0.20;;;;;;;10.45;84.12;98347.81;6305425;28;20280;-56
2024/02/19 09:58:10;;;;;;;0.23;0.20;;;;;;;10.09;85.79;98336.91;6303710;28;20763;-55
2024/02/19 10:01:12;;;;;;;0.30;0.30;;;;;;;9.97;92.45;98327.22;6306984;28;20191;-55
2024/02/19 10:04:15;;;;;;;0.20;0.20;;;;;;;9.94;91.10;98336.47;6309175;28;20203;-58
2024/02/19 10:07:18;;;;;;;0.20;0.20;;;;;;;9.93;87.04;98336.69;6312986;28;20677;-56
2024/02/19 10:10:21;;;;;;;0.20;0.20;;;;;;;10.05;88.67;98329.59;6297472;28;20196;-56
2024/02/19 10:13:24;;;;;;;0.43;0.30;;;;;;;10.09;88.71;98341.41;6298980;28;20199;-58
2024/02/19 10:16:26;;;;;;;0.57;0.20;;;;;;;10.02;86.73;98330.84;6290076;28;20200;-56
2024/02/19 10:19:28;;;;;;;0.20;0.20;;;;;;;10.08;86.32;98348.59;6306143;28;20193;-58
2024/02/19 10:22:32;;;;;;;0.30;0.20;;;;;;;10.04;85.05;98334.09;6308488;28;20208;-57
2024/02/19 10:25:34;;;;;;;0.20;0.20;;;;;;;10.26;86.02;98339.00;6302434;28;20387;-57
2024/02/19 10:28:36;;;;;;;0.50;0.30;;;;;;;10.16;82.23;98339.50;6303574;28;20212;-57
2024/02/19 10:31:40;;;;;;;0.57;0.20;;;;;;;10.20;84.82;98331.91;6303332;28;20784;-58
2024/02/19 10:34:42;;;;;;;0.20;0.20;;;;;;;10.17;82.95;98319.81;6310505;28;20549;-57
2024/02/19 10:37:44;;;;;;;0.30;0.30;;;;;;;10.19;83.05;98339.03;6306062;28;20198;-57
2024/02/19 10:40:47;;;;;;;0.30;0.30;;;;;;;10.22;83.96;98338.59;6309177;28;20240;-58
2024/02/19 10:43:51;;;;;;;0.50;0.40;;;;;;;10.36;85.29;98336.63;6300348;28;20567;-58
2024/02/19 10:46:54;;;;;;;0.20;0.20;;;;;;;10.29;81.07;98325.25;6310575;28;20194;-57
2024/02/19 10:49:57;;;;;;;0.40;0.30;;;;;;;10.06;81.46;98329.38;6306486;28;20191;-53
2024/02/19 10:53:05;;;;;;;0.30;0.30;;;;;;;10.28;81.14;98350.25;6306672;28;20196;-55
2024/02/19 10:56:18;;;;;;;0.33;0.33;;;;;;;10.43;83.46;98333.88;6303171;28;20263;-57
2024/02/19 10:59:21;;;;;;;1.13;0.53;;;;;;;10.71;82.25;98349.31;6300680;28;20237;-58
2024/02/19 11:02:25;;;;;;;0.40;0.40;;;;;;;10.75;79.87;98324.63;6305163;28;20312;-57
2024/02/19 11:05:27;;;;;;;0.40;0.40;;;;;;;10.75;80.05;98323.81;6311676;28;20541;-55
2024/02/19 11:08:34;;;;;;;0.50;0.50;;;;;;;10.92;80.16;98321.31;6314098;28;20576;-57
2024/02/19 11:12:01;;;;;;;0.70;0.37;;;;;;;10.73;78.66;98317.91;6308107;28;20704;-56
2024/02/19 11:15:14;;;;;;;0.90;0.40;;;;;;;10.73;80.86;98321.38;6304025;28;20209;-57
2024/02/19 11:18:20;;;;;;;1.33;0.40;;;;;;;10.79;79.95;98314.34;6303023;28;20844;-55
2024/02/19 11:21:22;;;;;;;0.57;0.57;;;;;;;10.66;80.12;98323.31;6311529;28;20555;-57
2024/02/19 11:24:25;;;;;;;0.40;0.40;;;;;;;10.64;81.04;98312.09;6304088;28;20207;-56
2024/02/19 11:27:27;;;;;;;0.50;0.50;;;;;;;10.80;79.75;98315.97;6306643;28;20195;-57
2024/02/19 11:30:31;;;;;;;0.40;0.40;;;;;;;10.68;79.14;98307.09;6308039;28;20390;-58
2024/02/19 11:33:33;;;;;;;1.17;0.40;;;;;;;10.84;79.68;98296.63;6307768;28;20688;-58
2024/02/19 11:36:35;;;;;;;0.50;0.50;;;;;;;10.95;77.93;98294.22;6316849;28;20195;-57
2024/02/19 11:39:37;;;;;;;0.40;0.40;;;;;;;10.66;79.17;98272.69;6312265;28;20200;-55
2024/02/19 11:42:40;;;;;;;0.50;0.50;;;;;;;10.69;76.56;98282.91;6315371;28;20237;-55
2024/02/19 11:45:42;;;;;;;0.43;0.43;;;;;;;10.57;81.42;98298.03;6295110;28;20194;-58
2024/02/19 11:48:45;;;;;;;0.93;0.30;;;;;;;10.91;80.43;98277.84;6302866;28;20655;-57
2024/02/19 11:51:47;;;;;;;0.67;0.40;;;;;;;11.07;78.27;98279.84;6307419;28;20262;-58
2024/02/19 11:55:02;;;;;;;0.47;0.40;;;;;;;10.94;76.94;98264.09;6307452;28;20192;-55
2024/02/19 11:58:09;;;;;;;0.30;0.30;;;;;;;11.09;79.74;98287.63;6308941;28;20635;-56
2024/02/19 12:01:12;;;;;;;1.17;0.40;;;;;;;11.25;79.69;98280.81;6313370;28;20734;-56
2024/02/19 12:04:15;;;;;;;0.37;0.30;;;;;;;10.99;77.49;98284.72;6302596;28;20193;-57
2024/02/19 12:07:17;;;;;;;0.50;0.40;;;;;;;10.78;79.67;98288.72;6312633;28;20186;-55
2024/02/19 12:10:19;;;;;;;0.40;0.40;;;;;;;10.82;80.25;98266.72;6302772;28;20208;-55
2024/02/19 12:13:22;;;;;;;0.30;0.30;;;;;;;10.77;78.20;98289.75;6316383;28;20207;-56
2024/02/19 12:16:27;;;;;;;0.53;0.40;;;;;;;10.70;78.40;98283.72;6299969;28;20196;-57
2024/02/19 12:19:29;;;;;;;0.47;0.47;;;;;;;10.62;79.26;98292.03;6302578;28;20222;-58
2024/02/19 12:22:32;;;;;;;0.50;0.50;;;;;;;10.41;79.47;98280.84;6306167;28;20673;-56
2024/02/19 12:25:35;;;;;;;0.50;0.50;;;;;;;10.39;79.59;98285.56;6305317;28;20701;-57
2024/02/19 12:28:38;;;;;;;1.17;0.60;;;;;;;10.27;80.61;98279.38;6305089;28;20322;-57
2024/02/19 12:31:40;;;;;;;1.10;0.50;;;;;;;10.42;80.24;98263.81;6311979;28;20209;-57
2024/02/19 12:34:44;;;;;;;1.33;0.60;;;;;;;10.51;78.42;98283.78;6297898;28;20639;-58
2024/02/19 12:37:46;;;;;;;1.03;0.50;;;;;;;10.67;78.05;98295.63;6313761;28;20666;-57
2024/02/19 12:40:49;;;;;;;1.07;0.53;;;;;;;10.63;77.14;98275.00;6298163;28;20840;-55
2024/02/19 12:43:51;;;;;;;0.60;0.37;;;;;;;10.53;78.67;98276.34;6313001;28;20205;-53
2024/02/19 12:46:54;;;;;;;0.60;0.37;;;;;;;10.53;80.03;98275.53;6311686;28;20246;-58
2024/02/19 12:49:56;;;;;;;0.70;0.70;;;;;;;10.45;77.63;98268.72;6307261;28;20257;-59
2024/02/19 12:53:00;;;;;;;2.63;0.50;;;;;;;10.55;78.22;98289.47;6303446;28;20648;-58
2024/02/19 12:56:06;;;;;;;0.40;0.40;;;;;;;10.49;77.51;98261.06;6308436;28;20201;-56
2024/02/19 12:59:09;;;;;;;0.40;0.40;;;;;;;10.47;77.38;98282.59;6303559;28;20210;-57
2024/02/19 13:02:14;;;;;;;1.63;0.40;;;;;;;10.37;77.92;98278.84;6301327;28;20209;-57
2024/02/19 13:05:16;;;;;;;0.77;0.50;;;;;;;10.38;80.25;98275.94;6301708;28;20198;-56
2024/02/19 13:08:19;;;;;;;1.33;0.50;;;;;;;10.37;79.60;98279.66;6307142;28;20227;-56
2024/02/19 13:11:21;;;;;;;0.60;0.30;;;;;;;10.39;79.40;98274.09;6296130;28;20204;-57
2024/02/19 13:14:24;;;;;;;0.50;0.50;;;;;;;10.36;82.43;98278.03;6296783;28;20187;-57
2024/02/19 13:17:27;;;;;;;0.73;0.40;;;;;;;10.39;85.04;98300.75;6306655;28;20220;-56
2024/02/19 13:20:43;;;;;;;1.27;0.50;;;;;;;10.40;85.75;98295.22;6306182;28;20195;-56
2024/02/19 13:23:45;;;;;;;0.73;0.50;;;;;;;10.37;84.57;98278.84;6304152;28;20691;-53
2024/02/19 13:26:48;;;;;;;2.67;0.50;;;;;;;10.23;84.47;98296.81;6305234;28;20266;-58
2024/02/19 13:29:54;;;;;;;0.70;0.50;;;;;;;10.20;86.35;98305.28;6304493;28;20799;-57
2024/02/19 13:32:57;;;;;;;0.60;0.60;;;;;;;10.22;84.67;98309.31;6311326;28;20245;-55
2024/02/19 13:36:00;;;;;;;1.83;0.60;;;;;;;10.17;84.18;98295.06;6315227;28;20196;-57
2024/02/19 13:39:02;;;;;;;0.50;0.50;;;;;;;9.91;85.46;98301.50;6303942;28;20213;-55
2024/02/19 13:42:05;;;;;;;0.87;0.53;;;;;;;9.89;91.46;98309.69;6297791;28;20740;-57
2024/02/19 13:45:11;;;;;;;1.50;0.70;;;;;;;9.81;91.16;98302.03;6301043;28;20187;-58
2024/02/19 13:48:13;;;;;;;1.60;0.70;;;;;;;9.72;86.05;98301.50;6301373;28;20396;-57
2024/02/19 13:51:16;;;;;;;0.60;0.60;;;;;;;9.73;88.72;98302.31;6302252;28;20221;-57
2024/02/19 13:54:18;;;;;;;0.93;0.80;;;;;;;9.74;85.51;98291.44;6305921;28;20688;-57
2024/02/19 13:57:20;;;;;;;0.67;0.50;;;;;;;9.73;84.96;98297.00;6300047;28;20197;-55
2024/02/19 14:00:22;;;;;;;0.63;0.63;;;;;;;9.74;88.07;98301.28;6298970;28;20207;-57
2024/02/19 14:03:24;;;;;;;1.10;0.67;;;;;;;9.73;85.21;98287.16;6312244;28;20264;-57
2024/02/19 14:06:27;;;;;;;1.57;0.87;;;;;;;9.72;83.15;98287.38;6299673;28;20195;-58
2024/02/19 14:09:29;;;;;;;2.23;0.80;;;;;;;9.72;84.76;98300.69;6310633;28;20657;-56
2024/02/19 14:12:32;;;;;;;0.93;0.87;;;;;;;9.73;82.96;98308.44;6312536;28;20676;-55
2024/02/19 14:15:35;;;;;;;1.00;0.70;;;;;;;9.89;81.65;98300.91;6302746;28;20205;-57
2024/02/19 14:18:37;;;;;;;1.23;0.70;;;;;;;9.86;82.96;98306.69;6302395;28;20215;-58
2024/02/19 14:21:40;;;;;;;0.70;0.67;;;;;;;9.93;80.48;98316.22;6303164;28;20269;-57